Glass Lake, New York
Current Conditions -  °F | °C
As of 3:51 PM on Friday 19 Dec 2014 (Local Time) from KALB Reporting Station
Overcast Overcast  
Wind Chill: 18°   Ceiling: 3600
Heat Index: 29°   Visibility: 10mi
Dew Point: 20°   Wind: 15mph
Humidity: 69%   Direction: 280°W
Pressure: 30.09"   Gusts: NA
Location:  42.6497°N, 73.5273°W
Report Text: KALB 192051Z 28013KT 10SM FEW028 OVC036 M02/M07 A3009 RMK AO2 SLP194 BINOVC T10171067 53012
Loading
Personal Weather Stations






























Interactive Weather Map New forecast layout! Learn more

10-Day Weather Forecast

Advertisements
Track Severe Weather on mobile